sensor_id;sensor_type;location;lat;lon;timestamp;P1;durP1;ratioP1;P2;durP2;ratioP2
57826;SDS011;43656;57.746;11.780;2022-11-02T00:01:40;37.92;;;5.35;;
57826;SDS011;43656;57.746;11.780;2022-11-02T00:04:07;33.72;;;4.75;;
57826;SDS011;43656;57.746;11.780;2022-11-02T00:06:33;41.03;;;4.68;;
57826;SDS011;43656;57.746;11.780;2022-11-02T00:08:58;28.10;;;4.53;;
57826;SDS011;43656;57.746;11.780;2022-11-02T00:11:24;36.65;;;6.07;;
57826;SDS011;43656;57.746;11.780;2022-11-02T00:13:49;32.75;;;4.60;;
57826;SDS011;43656;57.746;11.780;2022-11-02T00:16:15;32.65;;;4.85;;
57826;SDS011;43656;57.746;11.780;2022-11-02T00:18:42;31.80;;;5.60;;
57826;SDS011;43656;57.746;11.780;2022-11-02T00:21:11;29.42;;;5.40;;
57826;SDS011;43656;57.746;11.780;2022-11-02T00:23:39;27.25;;;4.38;;
57826;SDS011;43656;57.746;11.780;2022-11-02T00:26:05;39.70;;;5.35;;
57826;SDS011;43656;57.746;11.780;2022-11-02T00:28:31;29.33;;;3.92;;
57826;SDS011;43656;57.746;11.780;2022-11-02T00:30:57;34.63;;;5.28;;
57826;SDS011;43656;57.746;11.780;2022-11-02T00:33:22;35.65;;;5.15;;
57826;SDS011;43656;57.746;11.780;2022-11-02T00:35:47;23.55;;;3.83;;
57826;SDS011;43656;57.746;11.780;2022-11-02T00:38:13;33.95;;;4.63;;
57826;SDS011;43656;57.746;11.780;2022-11-02T00:40:38;29.58;;;4.85;;
57826;SDS011;43656;57.746;11.780;2022-11-02T00:43:03;25.45;;;4.00;;
57826;SDS011;43656;57.746;11.780;2022-11-02T00:45:32;28.05;;;4.50;;
57826;SDS011;43656;57.746;11.780;2022-11-02T00:47:57;27.63;;;4.03;;
57826;SDS011;43656;57.746;11.780;2022-11-02T00:50:25;32.50;;;4.82;;
57826;SDS011;43656;57.746;11.780;2022-11-02T00:52:50;28.83;;;4.10;;
57826;SDS011;43656;57.746;11.780;2022-11-02T00:55:16;28.85;;;4.95;;
57826;SDS011;43656;57.746;11.780;2022-11-02T00:57:42;32.60;;;4.85;;
57826;SDS011;43656;57.746;11.780;2022-11-02T01:00:09;27.00;;;3.75;;
57826;SDS011;43656;57.746;11.780;2022-11-02T01:02:35;21.45;;;3.97;;
57826;SDS011;43656;57.746;11.780;2022-11-02T01:05:02;28.95;;;4.05;;
57826;SDS011;43656;57.746;11.780;2022-11-02T01:07:28;29.05;;;3.90;;
57826;SDS011;43656;57.746;11.780;2022-11-02T01:09:54;37.08;;;4.68;;
57826;SDS011;43656;57.746;11.780;2022-11-02T01:12:20;26.70;;;4.03;;
57826;SDS011;43656;57.746;11.780;2022-11-02T01:14:46;29.30;;;4.32;;
57826;SDS011;43656;57.746;11.780;2022-11-02T01:17:12;27.38;;;4.15;;
57826;SDS011;43656;57.746;11.780;2022-11-02T01:19:37;25.83;;;4.13;;
57826;SDS011;43656;57.746;11.780;2022-11-02T01:22:02;29.25;;;4.55;;
57826;SDS011;43656;57.746;11.780;2022-11-02T01:24:28;32.13;;;5.00;;
57826;SDS011;43656;57.746;11.780;2022-11-02T01:26:54;35.80;;;4.38;;
57826;SDS011;43656;57.746;11.780;2022-11-02T01:29:19;28.33;;;4.22;;
57826;SDS011;43656;57.746;11.780;2022-11-02T01:31:44;32.63;;;4.68;;
57826;SDS011;43656;57.746;11.780;2022-11-02T01:34:10;30.08;;;4.45;;
57826;SDS011;43656;57.746;11.780;2022-11-02T01:36:36;39.80;;;4.80;;
57826;SDS011;43656;57.746;11.780;2022-11-02T01:39:01;28.33;;;4.35;;
57826;SDS011;43656;57.746;11.780;2022-11-02T01:41:27;26.98;;;4.53;;
57826;SDS011;43656;57.746;11.780;2022-11-02T01:43:53;32.50;;;4.32;;
57826;SDS011;43656;57.746;11.780;2022-11-02T01:46:50;27.02;;;4.15;;
57826;SDS011;43656;57.746;11.780;2022-11-02T01:49:19;19.65;;;3.70;;
57826;SDS011;43656;57.746;11.780;2022-11-02T01:52:07;29.20;;;4.20;;
57826;SDS011;43656;57.746;11.780;2022-11-02T01:54:54;21.75;;;3.83;;
57826;SDS011;43656;57.746;11.780;2022-11-02T01:57:24;24.02;;;3.55;;
57826;SDS011;43656;57.746;11.780;2022-11-02T01:59:56;25.90;;;3.70;;
57826;SDS011;43656;57.746;11.780;2022-11-02T02:02:32;26.33;;;3.97;;
57826;SDS011;43656;57.746;11.780;2022-11-02T02:05:05;27.75;;;4.07;;
57826;SDS011;43656;57.746;11.780;2022-11-02T02:07:34;28.02;;;4.25;;
57826;SDS011;43656;57.746;11.780;2022-11-02T02:10:09;26.70;;;3.95;;
57826;SDS011;43656;57.746;11.780;2022-11-02T02:12:36;31.65;;;4.10;;
57826;SDS011;43656;57.746;11.780;2022-11-02T02:15:03;18.85;;;4.05;;
57826;SDS011;43656;57.746;11.780;2022-11-02T02:17:43;20.67;;;4.13;;
57826;SDS011;43656;57.746;11.780;2022-11-02T02:31:17;18.17;;;3.83;;
57826;SDS011;43656;57.746;11.780;2022-11-02T02:34:33;28.38;;;3.60;;
57826;SDS011;43656;57.746;11.780;2022-11-02T02:37:07;24.75;;;3.22;;
57826;SDS011;43656;57.746;11.780;2022-11-02T02:42:27;25.13;;;3.63;;
57826;SDS011;43656;57.746;11.780;2022-11-02T02:48:20;22.17;;;3.80;;
57826;SDS011;43656;57.746;11.780;2022-11-02T02:50:48;19.70;;;2.85;;
57826;SDS011;43656;57.746;11.780;2022-11-02T02:53:15;21.25;;;3.10;;
57826;SDS011;43656;57.746;11.780;2022-11-02T02:55:48;28.45;;;3.63;;
57826;SDS011;43656;57.746;11.780;2022-11-02T02:58:17;26.27;;;3.28;;
57826;SDS011;43656;57.746;11.780;2022-11-02T03:01:04;19.50;;;3.50;;
57826;SDS011;43656;57.746;11.780;2022-11-02T03:03:30;21.23;;;3.55;;
57826;SDS011;43656;57.746;11.780;2022-11-02T03:08:46;22.98;;;3.90;;
57826;SDS011;43656;57.746;11.780;2022-11-02T03:11:24;20.17;;;3.15;;
57826;SDS011;43656;57.746;11.780;2022-11-02T03:13:54;18.58;;;3.15;;
57826;SDS011;43656;57.746;11.780;2022-11-02T03:22:29;21.25;;;4.53;;
57826;SDS011;43656;57.746;11.780;2022-11-02T03:24:58;25.20;;;3.90;;
57826;SDS011;43656;57.746;11.780;2022-11-02T03:27:32;20.17;;;3.53;;
57826;SDS011;43656;57.746;11.780;2022-11-02T03:32:48;21.25;;;3.13;;
57826;SDS011;43656;57.746;11.780;2022-11-02T03:35:16;24.65;;;3.78;;
57826;SDS011;43656;57.746;11.780;2022-11-02T03:37:54;26.27;;;3.60;;
57826;SDS011;43656;57.746;11.780;2022-11-02T03:40:26;18.30;;;2.95;;
57826;SDS011;43656;57.746;11.780;2022-11-02T03:42:57;23.13;;;3.97;;
57826;SDS011;43656;57.746;11.780;2022-11-02T03:45:45;26.10;;;3.60;;
57826;SDS011;43656;57.746;11.780;2022-11-02T03:48:39;18.63;;;3.33;;
57826;SDS011;43656;57.746;11.780;2022-11-02T03:51:11;18.35;;;3.42;;
57826;SDS011;43656;57.746;11.780;2022-11-02T03:53:58;21.55;;;3.45;;
57826;SDS011;43656;57.746;11.780;2022-11-02T03:56:34;22.48;;;3.58;;
57826;SDS011;43656;57.746;11.780;2022-11-02T04:01:35;19.15;;;3.78;;
57826;SDS011;43656;57.746;11.780;2022-11-02T04:04:05;21.70;;;3.20;;
57826;SDS011;43656;57.746;11.780;2022-11-02T04:06:31;25.55;;;4.13;;
57826;SDS011;43656;57.746;11.780;2022-11-02T04:08:57;28.00;;;4.32;;
57826;SDS011;43656;57.746;11.780;2022-11-02T04:11:23;21.95;;;3.35;;
57826;SDS011;43656;57.746;11.780;2022-11-02T04:14:07;26.75;;;3.92;;
57826;SDS011;43656;57.746;11.780;2022-11-02T04:16:52;25.35;;;4.13;;
57826;SDS011;43656;57.746;11.780;2022-11-02T04:19:40;22.92;;;4.00;;
57826;SDS011;43656;57.746;11.780;2022-11-02T04:22:05;26.15;;;3.28;;
57826;SDS011;43656;57.746;11.780;2022-11-02T04:24:50;31.77;;;4.20;;
57826;SDS011;43656;57.746;11.780;2022-11-02T04:27:35;22.40;;;3.75;;
57826;SDS011;43656;57.746;11.780;2022-11-02T04:30:00;26.08;;;3.67;;
57826;SDS011;43656;57.746;11.780;2022-11-02T04:32:26;17.35;;;3.10;;
57826;SDS011;43656;57.746;11.780;2022-11-02T04:35:20;24.67;;;3.80;;
57826;SDS011;43656;57.746;11.780;2022-11-02T04:37:45;21.63;;;3.47;;
57826;SDS011;43656;57.746;11.780;2022-11-02T04:40:30;19.25;;;3.28;;
57826;SDS011;43656;57.746;11.780;2022-11-02T04:42:55;29.75;;;3.88;;
57826;SDS011;43656;57.746;11.780;2022-11-02T04:45:20;22.60;;;3.38;;
57826;SDS011;43656;57.746;11.780;2022-11-02T04:47:46;27.38;;;4.57;;
57826;SDS011;43656;57.746;11.780;2022-11-02T04:50:11;20.20;;;3.53;;
57826;SDS011;43656;57.746;11.780;2022-11-02T04:52:37;27.27;;;3.35;;
57826;SDS011;43656;57.746;11.780;2022-11-02T04:55:03;25.65;;;4.20;;
57826;SDS011;43656;57.746;11.780;2022-11-02T04:57:28;22.42;;;4.30;;
57826;SDS011;43656;57.746;11.780;2022-11-02T04:59:54;29.27;;;4.32;;
57826;SDS011;43656;57.746;11.780;2022-11-02T05:02:19;17.70;;;3.63;;
57826;SDS011;43656;57.746;11.780;2022-11-02T05:04:44;25.67;;;4.15;;
57826;SDS011;43656;57.746;11.780;2022-11-02T05:07:10;25.52;;;4.28;;
57826;SDS011;43656;57.746;11.780;2022-11-02T05:09:35;25.73;;;3.95;;
57826;SDS011;43656;57.746;11.780;2022-11-02T05:12:01;29.35;;;4.32;;
57826;SDS011;43656;57.746;11.780;2022-11-02T05:14:29;25.30;;;3.92;;
57826;SDS011;43656;57.746;11.780;2022-11-02T05:16:58;33.40;;;4.90;;
57826;SDS011;43656;57.746;11.780;2022-11-02T05:19:23;23.95;;;4.15;;
57826;SDS011;43656;57.746;11.780;2022-11-02T05:21:49;27.73;;;3.63;;
57826;SDS011;43656;57.746;11.780;2022-11-02T05:24:14;24.88;;;3.80;;
57826;SDS011;43656;57.746;11.780;2022-11-02T05:26:40;23.40;;;3.50;;
57826;SDS011;43656;57.746;11.780;2022-11-02T05:29:05;34.28;;;4.00;;
57826;SDS011;43656;57.746;11.780;2022-11-02T05:31:31;26.60;;;4.30;;
57826;SDS011;43656;57.746;11.780;2022-11-02T05:33:57;31.13;;;4.40;;
57826;SDS011;43656;57.746;11.780;2022-11-02T05:36:22;29.02;;;4.57;;
57826;SDS011;43656;57.746;11.780;2022-11-02T05:38:50;39.55;;;4.95;;
57826;SDS011;43656;57.746;11.780;2022-11-02T05:41:33;31.23;;;4.88;;
57826;SDS011;43656;57.746;11.780;2022-11-02T05:43:59;30.60;;;4.07;;
57826;SDS011;43656;57.746;11.780;2022-11-02T05:46:24;35.00;;;4.50;;
57826;SDS011;43656;57.746;11.780;2022-11-02T05:48:50;32.92;;;4.70;;
57826;SDS011;43656;57.746;11.780;2022-11-02T05:51:15;31.55;;;4.78;;
57826;SDS011;43656;57.746;11.780;2022-11-02T05:53:41;25.45;;;4.13;;
57826;SDS011;43656;57.746;11.780;2022-11-02T05:56:06;22.52;;;4.38;;
57826;SDS011;43656;57.746;11.780;2022-11-02T05:58:33;30.38;;;4.20;;
57826;SDS011;43656;57.746;11.780;2022-11-02T06:00:59;28.08;;;4.10;;
57826;SDS011;43656;57.746;11.780;2022-11-02T06:03:45;29.23;;;3.50;;
57826;SDS011;43656;57.746;11.780;2022-11-02T06:06:10;21.92;;;3.22;;
57826;SDS011;43656;57.746;11.780;2022-11-02T06:08:37;26.27;;;3.75;;
57826;SDS011;43656;57.746;11.780;2022-11-02T06:11:06;27.73;;;4.15;;
57826;SDS011;43656;57.746;11.780;2022-11-02T06:13:33;31.77;;;5.20;;
57826;SDS011;43656;57.746;11.780;2022-11-02T06:15:59;26.35;;;3.78;;
57826;SDS011;43656;57.746;11.780;2022-11-02T06:18:26;26.75;;;4.55;;
57826;SDS011;43656;57.746;11.780;2022-11-02T06:20:52;24.13;;;4.05;;
57826;SDS011;43656;57.746;11.780;2022-11-02T06:23:17;31.85;;;4.68;;
57826;SDS011;43656;57.746;11.780;2022-11-02T06:25:49;27.73;;;3.92;;
57826;SDS011;43656;57.746;11.780;2022-11-02T06:28:18;36.70;;;4.72;;
57826;SDS011;43656;57.746;11.780;2022-11-02T06:30:44;34.70;;;4.38;;
57826;SDS011;43656;57.746;11.780;2022-11-02T06:33:10;26.60;;;3.97;;
57826;SDS011;43656;57.746;11.780;2022-11-02T06:35:35;30.92;;;4.60;;
57826;SDS011;43656;57.746;11.780;2022-11-02T06:38:00;34.42;;;4.20;;
57826;SDS011;43656;57.746;11.780;2022-11-02T06:40:26;36.83;;;5.13;;
57826;SDS011;43656;57.746;11.780;2022-11-02T06:42:58;30.50;;;4.00;;
57826;SDS011;43656;57.746;11.780;2022-11-02T06:45:23;31.23;;;4.38;;
57826;SDS011;43656;57.746;11.780;2022-11-02T06:47:49;26.88;;;3.90;;
57826;SDS011;43656;57.746;11.780;2022-11-02T06:50:17;33.60;;;4.38;;
57826;SDS011;43656;57.746;11.780;2022-11-02T06:52:45;19.48;;;3.78;;
57826;SDS011;43656;57.746;11.780;2022-11-02T06:55:12;31.88;;;5.03;;
57826;SDS011;43656;57.746;11.780;2022-11-02T06:57:38;27.50;;;3.90;;
57826;SDS011;43656;57.746;11.780;2022-11-02T07:00:06;35.35;;;4.05;;
57826;SDS011;43656;57.746;11.780;2022-11-02T07:02:37;30.48;;;4.15;;
57826;SDS011;43656;57.746;11.780;2022-11-02T07:05:05;26.30;;;3.80;;
57826;SDS011;43656;57.746;11.780;2022-11-02T07:07:30;35.15;;;3.83;;
57826;SDS011;43656;57.746;11.780;2022-11-02T07:09:56;25.75;;;3.78;;
57826;SDS011;43656;57.746;11.780;2022-11-02T07:12:21;22.02;;;3.88;;
57826;SDS011;43656;57.746;11.780;2022-11-02T07:14:47;32.00;;;4.00;;
57826;SDS011;43656;57.746;11.780;2022-11-02T07:17:15;28.13;;;3.63;;
57826;SDS011;43656;57.746;11.780;2022-11-02T07:19:40;38.90;;;4.40;;
57826;SDS011;43656;57.746;11.780;2022-11-02T07:22:06;32.28;;;4.88;;
57826;SDS011;43656;57.746;11.780;2022-11-02T07:24:31;30.15;;;4.20;;
57826;SDS011;43656;57.746;11.780;2022-11-02T07:26:56;30.40;;;4.60;;
57826;SDS011;43656;57.746;11.780;2022-11-02T07:29:22;25.88;;;4.68;;
57826;SDS011;43656;57.746;11.780;2022-11-02T07:31:47;24.98;;;4.15;;
57826;SDS011;43656;57.746;11.780;2022-11-02T07:34:13;24.02;;;4.20;;
57826;SDS011;43656;57.746;11.780;2022-11-02T07:36:38;25.95;;;4.25;;
57826;SDS011;43656;57.746;11.780;2022-11-02T07:39:04;34.38;;;4.60;;
57826;SDS011;43656;57.746;11.780;2022-11-02T07:41:31;32.28;;;4.22;;
57826;SDS011;43656;57.746;11.780;2022-11-02T07:43:57;31.05;;;4.55;;
57826;SDS011;43656;57.746;11.780;2022-11-02T07:46:22;30.23;;;5.18;;
57826;SDS011;43656;57.746;11.780;2022-11-02T07:48:48;30.05;;;4.25;;
57826;SDS011;43656;57.746;11.780;2022-11-02T07:51:13;31.58;;;4.30;;
57826;SDS011;43656;57.746;11.780;2022-11-02T07:53:38;29.77;;;3.92;;
57826;SDS011;43656;57.746;11.780;2022-11-02T07:56:04;35.78;;;5.30;;
57826;SDS011;43656;57.746;11.780;2022-11-02T07:58:30;33.30;;;4.57;;
57826;SDS011;43656;57.746;11.780;2022-11-02T08:00:56;31.35;;;4.47;;
57826;SDS011;43656;57.746;11.780;2022-11-02T08:03:23;29.98;;;4.53;;
57826;SDS011;43656;57.746;11.780;2022-11-02T08:05:49;28.67;;;4.63;;
57826;SDS011;43656;57.746;11.780;2022-11-02T08:08:15;26.75;;;4.40;;
57826;SDS011;43656;57.746;11.780;2022-11-02T08:10:42;34.20;;;4.80;;
57826;SDS011;43656;57.746;11.780;2022-11-02T08:13:10;30.13;;;4.20;;
57826;SDS011;43656;57.746;11.780;2022-11-02T08:15:37;30.63;;;4.18;;
57826;SDS011;43656;57.746;11.780;2022-11-02T08:18:04;27.27;;;4.35;;
57826;SDS011;43656;57.746;11.780;2022-11-02T08:20:31;31.65;;;4.38;;
57826;SDS011;43656;57.746;11.780;2022-11-02T08:22:58;21.52;;;3.95;;
57826;SDS011;43656;57.746;11.780;2022-11-02T08:25:24;29.48;;;4.95;;
57826;SDS011;43656;57.746;11.780;2022-11-02T08:27:50;28.83;;;4.85;;
57826;SDS011;43656;57.746;11.780;2022-11-02T08:30:16;34.97;;;4.90;;
57826;SDS011;43656;57.746;11.780;2022-11-02T08:32:41;25.30;;;4.63;;
57826;SDS011;43656;57.746;11.780;2022-11-02T08:35:06;26.42;;;4.65;;
57826;SDS011;43656;57.746;11.780;2022-11-02T08:37:32;25.13;;;4.25;;
57826;SDS011;43656;57.746;11.780;2022-11-02T08:39:57;24.88;;;4.30;;
57826;SDS011;43656;57.746;11.780;2022-11-02T08:42:23;26.88;;;4.40;;
57826;SDS011;43656;57.746;11.780;2022-11-02T08:44:49;30.02;;;4.45;;
57826;SDS011;43656;57.746;11.780;2022-11-02T08:47:14;28.75;;;4.95;;
57826;SDS011;43656;57.746;11.780;2022-11-02T08:49:41;19.52;;;4.03;;
57826;SDS011;43656;57.746;11.780;2022-11-02T08:52:07;31.65;;;5.10;;
57826;SDS011;43656;57.746;11.780;2022-11-02T08:54:32;32.30;;;4.55;;
57826;SDS011;43656;57.746;11.780;2022-11-02T08:56:57;29.27;;;4.72;;
57826;SDS011;43656;57.746;11.780;2022-11-02T08:59:24;29.63;;;4.28;;
57826;SDS011;43656;57.746;11.780;2022-11-02T09:01:50;28.10;;;4.07;;
57826;SDS011;43656;57.746;11.780;2022-11-02T09:04:15;26.45;;;3.97;;
57826;SDS011;43656;57.746;11.780;2022-11-02T09:06:40;29.30;;;3.95;;
57826;SDS011;43656;57.746;11.780;2022-11-02T09:09:06;31.35;;;4.75;;
57826;SDS011;43656;57.746;11.780;2022-11-02T09:11:31;27.20;;;4.15;;
57826;SDS011;43656;57.746;11.780;2022-11-02T09:13:56;24.52;;;3.80;;
57826;SDS011;43656;57.746;11.780;2022-11-02T09:16:22;23.90;;;4.35;;
57826;SDS011;43656;57.746;11.780;2022-11-02T09:18:47;18.90;;;3.45;;
57826;SDS011;43656;57.746;11.780;2022-11-02T09:21:12;26.42;;;3.60;;
57826;SDS011;43656;57.746;11.780;2022-11-02T09:23:38;22.58;;;3.78;;
57826;SDS011;43656;57.746;11.780;2022-11-02T09:26:04;28.23;;;3.20;;
57826;SDS011;43656;57.746;11.780;2022-11-02T09:28:29;23.20;;;3.20;;
57826;SDS011;43656;57.746;11.780;2022-11-02T09:30:55;17.70;;;2.92;;
57826;SDS011;43656;57.746;11.780;2022-11-02T09:33:20;14.43;;;2.70;;
57826;SDS011;43656;57.746;11.780;2022-11-02T09:35:46;18.55;;;3.85;;
57826;SDS011;43656;57.746;11.780;2022-11-02T09:38:13;21.42;;;2.97;;
57826;SDS011;43656;57.746;11.780;2022-11-02T09:40:42;22.85;;;3.08;;
57826;SDS011;43656;57.746;11.780;2022-11-02T09:48:21;22.92;;;4.03;;
57826;SDS011;43656;57.746;11.780;2022-11-02T09:51:03;21.38;;;3.55;;
57826;SDS011;43656;57.746;11.780;2022-11-02T09:56:07;22.15;;;4.18;;
57826;SDS011;43656;57.746;11.780;2022-11-02T09:58:37;18.67;;;3.55;;
57826;SDS011;43656;57.746;11.780;2022-11-02T10:01:07;27.73;;;4.03;;
57826;SDS011;43656;57.746;11.780;2022-11-02T10:06:42;23.23;;;4.03;;
57826;SDS011;43656;57.746;11.780;2022-11-02T10:09:16;20.75;;;3.33;;
57826;SDS011;43656;57.746;11.780;2022-11-02T10:14:36;16.38;;;3.20;;
57826;SDS011;43656;57.746;11.780;2022-11-02T10:17:13;20.25;;;3.90;;
57826;SDS011;43656;57.746;11.780;2022-11-02T10:20:01;19.92;;;3.42;;
57826;SDS011;43656;57.746;11.780;2022-11-02T10:22:32;19.65;;;3.45;;
57826;SDS011;43656;57.746;11.780;2022-11-02T10:25:03;23.17;;;3.30;;
57826;SDS011;43656;57.746;11.780;2022-11-02T10:27:32;19.38;;;3.45;;
57826;SDS011;43656;57.746;11.780;2022-11-02T10:30:12;19.55;;;3.35;;
57826;SDS011;43656;57.746;11.780;2022-11-02T10:32:42;22.27;;;3.90;;
57826;SDS011;43656;57.746;11.780;2022-11-02T10:35:22;18.38;;;3.50;;
57826;SDS011;43656;57.746;11.780;2022-11-02T10:49:12;19.17;;;2.75;;
57826;SDS011;43656;57.746;11.780;2022-11-02T10:51:45;21.08;;;3.80;;
57826;SDS011;43656;57.746;11.780;2022-11-02T10:54:11;17.20;;;2.65;;
57826;SDS011;43656;57.746;11.780;2022-11-02T10:56:39;15.70;;;2.92;;
57826;SDS011;43656;57.746;11.780;2022-11-02T10:59:10;19.73;;;3.13;;
57826;SDS011;43656;57.746;11.780;2022-11-02T11:01:44;15.65;;;2.95;;
57826;SDS011;43656;57.746;11.780;2022-11-02T11:04:21;16.52;;;2.50;;
57826;SDS011;43656;57.746;11.780;2022-11-02T11:06:49;13.90;;;2.97;;
57826;SDS011;43656;57.746;11.780;2022-11-02T11:11:57;19.23;;;3.25;;
57826;SDS011;43656;57.746;11.780;2022-11-02T11:14:26;20.95;;;3.60;;
57826;SDS011;43656;57.746;11.780;2022-11-02T11:17:15;21.92;;;3.28;;
57826;SDS011;43656;57.746;11.780;2022-11-02T11:19:51;20.83;;;3.70;;
57826;SDS011;43656;57.746;11.780;2022-11-02T11:22:37;19.17;;;3.08;;
57826;SDS011;43656;57.746;11.780;2022-11-02T11:25:22;17.38;;;2.53;;
57826;SDS011;43656;57.746;11.780;2022-11-02T11:27:52;18.88;;;2.85;;
57826;SDS011;43656;57.746;11.780;2022-11-02T11:30:26;14.88;;;2.33;;
57826;SDS011;43656;57.746;11.780;2022-11-02T11:33:14;13.65;;;2.40;;
57826;SDS011;43656;57.746;11.780;2022-11-02T11:35:46;17.65;;;2.80;;
57826;SDS011;43656;57.746;11.780;2022-11-02T11:38:14;17.35;;;2.33;;
57826;SDS011;43656;57.746;11.780;2022-11-02T11:40:45;18.83;;;2.70;;
57826;SDS011;43656;57.746;11.780;2022-11-02T11:43:18;16.35;;;2.60;;
57826;SDS011;43656;57.746;11.780;2022-11-02T11:46:01;12.60;;;2.15;;
57826;SDS011;43656;57.746;11.780;2022-11-02T11:56:49;15.75;;;2.03;;
57826;SDS011;43656;57.746;11.780;2022-11-02T11:59:18;9.40;;;1.60;;
57826;SDS011;43656;57.746;11.780;2022-11-02T12:01:46;11.77;;;1.73;;
57826;SDS011;43656;57.746;11.780;2022-11-02T12:04:12;10.10;;;1.42;;
57826;SDS011;43656;57.746;11.780;2022-11-02T12:14:58;9.23;;;1.60;;
57826;SDS011;43656;57.746;11.780;2022-11-02T12:35:15;20.60;;;2.17;;
57826;SDS011;43656;57.746;11.780;2022-11-02T12:54:55;9.10;;;1.60;;
57826;SDS011;43656;57.746;11.780;2022-11-02T12:57:26;7.88;;;1.20;;
57826;SDS011;43656;57.746;11.780;2022-11-02T12:59:54;6.45;;;1.17;;
57826;SDS011;43656;57.746;11.780;2022-11-02T13:05:02;14.57;;;1.95;;
57826;SDS011;43656;57.746;11.780;2022-11-02T13:07:35;8.45;;;1.42;;
57826;SDS011;43656;57.746;11.780;2022-11-02T13:10:08;9.45;;;1.67;;
57826;SDS011;43656;57.746;11.780;2022-11-02T13:12:41;9.30;;;1.08;;
57826;SDS011;43656;57.746;11.780;2022-11-02T13:15:11;10.57;;;1.58;;
57826;SDS011;43656;57.746;11.780;2022-11-02T13:17:44;9.63;;;1.23;;
57826;SDS011;43656;57.746;11.780;2022-11-02T13:20:17;11.02;;;1.73;;
57826;SDS011;43656;57.746;11.780;2022-11-02T13:22:44;12.38;;;2.05;;
57826;SDS011;43656;57.746;11.780;2022-11-02T13:25:22;10.95;;;1.58;;
57826;SDS011;43656;57.746;11.780;2022-11-02T13:27:57;9.18;;;1.48;;
57826;SDS011;43656;57.746;11.780;2022-11-02T13:30:26;9.88;;;1.45;;
57826;SDS011;43656;57.746;11.780;2022-11-02T13:32:55;10.48;;;1.48;;
57826;SDS011;43656;57.746;11.780;2022-11-02T13:35:32;10.30;;;1.30;;
57826;SDS011;43656;57.746;11.780;2022-11-02T13:43:57;11.40;;;1.65;;
57826;SDS011;43656;57.746;11.780;2022-11-02T13:49:00;15.48;;;1.40;;
57826;SDS011;43656;57.746;11.780;2022-11-02T13:51:38;15.35;;;1.90;;
57826;SDS011;43656;57.746;11.780;2022-11-02T13:54:11;10.27;;;1.45;;
57826;SDS011;43656;57.746;11.780;2022-11-02T13:56:44;12.15;;;1.63;;
57826;SDS011;43656;57.746;11.780;2022-11-02T14:02:10;11.63;;;1.50;;
57826;SDS011;43656;57.746;11.780;2022-11-02T14:04:40;13.32;;;1.83;;
57826;SDS011;43656;57.746;11.780;2022-11-02T14:07:08;10.60;;;1.52;;
57826;SDS011;43656;57.746;11.780;2022-11-02T14:09:57;15.02;;;1.70;;
57826;SDS011;43656;57.746;11.780;2022-11-02T14:12:44;9.30;;;2.08;;
57826;SDS011;43656;57.746;11.780;2022-11-02T14:36:20;15.23;;;1.80;;
57826;SDS011;43656;57.746;11.780;2022-11-02T14:46:55;10.82;;;1.67;;
57826;SDS011;43656;57.746;11.780;2022-11-02T14:49:52;12.63;;;1.67;;
57826;SDS011;43656;57.746;11.780;2022-11-02T14:52:30;12.07;;;1.60;;
57826;SDS011;43656;57.746;11.780;2022-11-02T15:02:45;11.70;;;1.85;;
57826;SDS011;43656;57.746;11.780;2022-11-02T15:10:43;12.63;;;2.22;;
57826;SDS011;43656;57.746;11.780;2022-11-02T15:23:57;7.03;;;1.63;;
57826;SDS011;43656;57.746;11.780;2022-11-02T15:29:13;10.90;;;1.77;;
57826;SDS011;43656;57.746;11.780;2022-11-02T15:31:46;12.07;;;1.60;;
57826;SDS011;43656;57.746;11.780;2022-11-02T15:34:18;15.73;;;1.85;;
57826;SDS011;43656;57.746;11.780;2022-11-02T15:36:45;11.48;;;1.30;;
57826;SDS011;43656;57.746;11.780;2022-11-02T15:39:11;12.40;;;1.30;;
57826;SDS011;43656;57.746;11.780;2022-11-02T15:42:26;12.95;;;1.35;;
57826;SDS011;43656;57.746;11.780;2022-11-02T16:01:18;7.95;;;1.15;;
57826;SDS011;43656;57.746;11.780;2022-11-02T16:03:50;6.88;;;0.80;;
57826;SDS011;43656;57.746;11.780;2022-11-02T16:06:25;9.05;;;0.98;;
57826;SDS011;43656;57.746;11.780;2022-11-02T16:09:01;9.50;;;1.45;;
57826;SDS011;43656;57.746;11.780;2022-11-02T16:11:59;8.40;;;1.58;;
57826;SDS011;43656;57.746;11.780;2022-11-02T16:14:35;6.55;;;1.00;;
57826;SDS011;43656;57.746;11.780;2022-11-02T16:17:00;10.85;;;1.20;;
57826;SDS011;43656;57.746;11.780;2022-11-02T16:19:26;9.60;;;1.05;;
57826;SDS011;43656;57.746;11.780;2022-11-02T16:21:51;12.07;;;1.33;;
57826;SDS011;43656;57.746;11.780;2022-11-02T16:24:17;12.07;;;1.60;;
57826;SDS011;43656;57.746;11.780;2022-11-02T16:26:43;13.52;;;1.98;;
57826;SDS011;43656;57.746;11.780;2022-11-02T16:29:10;15.98;;;1.88;;
57826;SDS011;43656;57.746;11.780;2022-11-02T16:31:45;17.20;;;1.85;;
57826;SDS011;43656;57.746;11.780;2022-11-02T16:34:24;16.08;;;1.83;;
57826;SDS011;43656;57.746;11.780;2022-11-02T16:36:53;16.58;;;2.33;;
57826;SDS011;43656;57.746;11.780;2022-11-02T16:39:26;10.93;;;1.40;;
57826;SDS011;43656;57.746;11.780;2022-11-02T16:41:54;13.30;;;1.50;;
57826;SDS011;43656;57.746;11.780;2022-11-02T16:47:14;15.07;;;1.83;;
57826;SDS011;43656;57.746;11.780;2022-11-02T16:52:18;16.90;;;1.98;;
57826;SDS011;43656;57.746;11.780;2022-11-02T16:54:45;14.85;;;1.95;;
57826;SDS011;43656;57.746;11.780;2022-11-02T16:59:50;18.97;;;2.13;;
57826;SDS011;43656;57.746;11.780;2022-11-02T17:02:16;13.38;;;2.00;;
57826;SDS011;43656;57.746;11.780;2022-11-02T17:04:42;17.40;;;1.85;;
57826;SDS011;43656;57.746;11.780;2022-11-02T17:07:16;11.38;;;1.80;;
57826;SDS011;43656;57.746;11.780;2022-11-02T17:09:56;12.80;;;1.63;;
57826;SDS011;43656;57.746;11.780;2022-11-02T17:12:41;16.73;;;2.10;;
57826;SDS011;43656;57.746;11.780;2022-11-02T17:17:42;15.90;;;2.70;;
57826;SDS011;43656;57.746;11.780;2022-11-02T17:22:49;12.32;;;2.00;;
57826;SDS011;43656;57.746;11.780;2022-11-02T17:25:30;13.10;;;1.95;;
57826;SDS011;43656;57.746;11.780;2022-11-02T17:28:02;17.85;;;2.10;;
57826;SDS011;43656;57.746;11.780;2022-11-02T17:30:48;13.82;;;2.05;;
57826;SDS011;43656;57.746;11.780;2022-11-02T17:35:46;19.75;;;2.40;;
57826;SDS011;43656;57.746;11.780;2022-11-02T17:38:13;13.60;;;2.20;;
57826;SDS011;43656;57.746;11.780;2022-11-02T17:40:39;18.52;;;2.10;;
57826;SDS011;43656;57.746;11.780;2022-11-02T17:43:05;13.40;;;2.05;;
57826;SDS011;43656;57.746;11.780;2022-11-02T17:45:31;15.75;;;2.25;;
57826;SDS011;43656;57.746;11.780;2022-11-02T17:47:59;11.88;;;1.80;;
57826;SDS011;43656;57.746;11.780;2022-11-02T17:50:26;16.60;;;1.88;;
57826;SDS011;43656;57.746;11.780;2022-11-02T17:52:53;13.05;;;1.70;;
57826;SDS011;43656;57.746;11.780;2022-11-02T17:55:26;20.67;;;2.45;;
57826;SDS011;43656;57.746;11.780;2022-11-02T17:57:56;17.50;;;2.30;;
57826;SDS011;43656;57.746;11.780;2022-11-02T18:00:22;13.43;;;1.92;;
57826;SDS011;43656;57.746;11.780;2022-11-02T18:02:50;13.80;;;2.33;;
57826;SDS011;43656;57.746;11.780;2022-11-02T18:08:11;16.20;;;2.60;;
57826;SDS011;43656;57.746;11.780;2022-11-02T18:10:38;15.32;;;2.17;;
57826;SDS011;43656;57.746;11.780;2022-11-02T18:13:05;16.15;;;2.60;;
57826;SDS011;43656;57.746;11.780;2022-11-02T18:15:31;17.75;;;2.47;;